createdAt,value
2019-06-10T00:01:22.425Z,16.38
2019-06-10T00:03:51.807Z,16.35
2019-06-10T00:06:20.820Z,16.32
2019-06-10T00:08:47.779Z,16.36
2019-06-10T00:11:14.875Z,16.37
2019-06-10T00:13:42.038Z,16.39
2019-06-10T00:16:11.292Z,16.41
2019-06-10T00:18:42.151Z,16.39
2019-06-10T00:21:08.322Z,16.36
2019-06-10T00:23:35.626Z,16.28
2019-06-10T00:26:05.805Z,16.26
2019-06-10T00:28:31.943Z,16.21
2019-06-10T00:31:01.152Z,16.18
2019-06-10T00:33:28.165Z,16.21
2019-06-10T00:35:55.302Z,16.29
2019-06-10T00:38:22.419Z,16.26
2019-06-10T00:40:51.292Z,16.22
2019-06-10T00:43:21.192Z,16.19
2019-06-10T00:45:48.375Z,16.27
2019-06-10T00:48:25.254Z,16.33
2019-06-10T00:50:44.713Z,16.28
2019-06-10T00:53:14.321Z,16.14
2019-06-10T00:55:41.707Z,16.01
2019-06-10T00:58:11.859Z,16.04
2019-06-10T01:00:41.166Z,16.11
2019-06-10T01:03:08.428Z,16.04
2019-06-10T01:05:35.581Z,16.10
2019-06-10T01:08:04.499Z,16.11
2019-06-10T01:10:31.761Z,16.09
2019-06-10T01:13:00.833Z,16.07
2019-06-10T01:15:27.930Z,16.00
2019-06-10T01:17:55.050Z,15.92
2019-06-10T01:20:22.180Z,15.83
2019-06-10T01:22:51.494Z,15.76
2019-06-10T01:25:18.362Z,15.76
2019-06-10T01:27:45.580Z,15.83
2019-06-10T01:30:20.569Z,15.84
2019-06-10T01:32:42.391Z,15.87
2019-06-10T01:35:11.565Z,15.81
2019-06-10T01:37:41.243Z,15.75
2019-06-10T01:40:08.480Z,15.74
2019-06-10T01:42:35.582Z,15.72
2019-06-10T01:45:04.408Z,15.76
2019-06-10T01:47:31.698Z,15.73
2019-06-10T01:50:00.686Z,15.70
2019-06-10T01:52:27.834Z,15.76
2019-06-10T01:54:54.910Z,15.73
2019-06-10T01:57:23.427Z,15.79
2019-06-10T01:59:51.007Z,15.75
2019-06-10T02:02:24.091Z,15.77
2019-06-10T02:04:51.859Z,15.82
2019-06-10T02:07:22.761Z,15.81
2019-06-10T02:09:48.164Z,15.85
2019-06-10T02:12:17.610Z,15.90
2019-06-10T02:14:44.480Z,15.95
2019-06-10T02:17:13.655Z,16.02
2019-06-10T02:19:43.715Z,16.07
2019-06-10T02:22:16.317Z,16.05
2019-06-10T02:24:42.035Z,16.06
2019-06-10T02:27:13.011Z,16.03
2019-06-10T02:29:41.266Z,16.03
2019-06-10T02:32:12.393Z,15.97
2019-06-10T02:34:59.946Z,15.98
2019-06-10T02:37:13.638Z,15.93
2019-06-10T02:39:39.740Z,15.83
2019-06-10T02:42:09.075Z,15.86
2019-06-10T02:44:38.764Z,15.89
2019-06-10T02:47:06.098Z,15.89
2019-06-10T02:49:48.131Z,15.92
2019-06-10T02:52:04.902Z,15.79
2019-06-10T02:54:35.826Z,15.67
2019-06-10T02:57:04.391Z,15.62
2019-06-10T02:59:32.862Z,15.75
2019-06-10T03:02:03.125Z,15.71
2019-06-10T03:04:36.475Z,15.71
2019-06-10T03:06:59.684Z,15.67
2019-06-10T03:09:31.761Z,15.62
2019-06-10T03:11:55.993Z,15.65
2019-06-10T03:14:25.720Z,15.68
2019-06-10T03:16:56.764Z,15.69
2019-06-10T03:19:42.263Z,15.65
2019-06-10T03:21:58.061Z,15.59
2019-06-10T03:24:25.460Z,15.60
2019-06-10T03:26:53.148Z,15.60
2019-06-10T03:29:21.278Z,15.61
2019-06-10T03:31:55.395Z,15.56
2019-06-10T03:34:33.639Z,15.58
2019-06-10T03:36:56.676Z,15.58
2019-06-10T03:39:26.825Z,15.55
2019-06-10T03:41:56.125Z,15.56
2019-06-10T03:44:24.945Z,15.56
2019-06-10T03:46:59.351Z,15.55
2019-06-10T03:49:27.493Z,15.47
2019-06-10T03:51:55.764Z,15.47
2019-06-10T03:54:28.242Z,15.46
2019-06-10T03:56:54.754Z,15.43
2019-06-10T03:59:24.666Z,15.45
2019-06-10T04:01:52.972Z,15.44
2019-06-10T04:04:23.382Z,15.28
2019-06-10T04:06:49.451Z,15.33
2019-06-10T04:09:17.436Z,15.32
2019-06-10T04:11:44.847Z,15.26
2019-06-10T04:14:12.991Z,15.26
2019-06-10T04:16:43.442Z,15.17
2019-06-10T04:19:13.127Z,15.20
2019-06-10T04:21:43.036Z,15.25
2019-06-10T04:24:09.687Z,15.22
2019-06-10T04:26:36.946Z,15.19
2019-06-10T04:29:04.473Z,15.23
2019-06-10T04:31:32.987Z,15.27
2019-06-10T04:34:02.937Z,15.43
2019-06-10T04:36:29.792Z,15.56
2019-06-10T04:38:57.130Z,15.53
2019-06-10T04:41:24.972Z,15.54
2019-06-10T04:43:53.363Z,15.51
2019-06-10T04:46:23.214Z,15.49
2019-06-10T04:48:49.601Z,15.51
2019-06-10T04:51:17.062Z,15.57
2019-06-10T04:53:44.224Z,15.63
2019-06-10T04:56:12.283Z,15.67
2019-06-10T04:58:43.024Z,15.71
2019-06-10T05:01:12.021Z,15.74
2019-06-10T05:03:39.040Z,15.77
2019-06-10T05:06:06.367Z,15.82
2019-06-10T05:08:34.007Z,15.79
2019-06-10T05:11:03.725Z,15.75
2019-06-10T05:13:33.253Z,15.81
2019-06-10T05:16:00.167Z,15.89
2019-06-10T05:18:28.733Z,15.93
2019-06-10T05:20:58.679Z,15.98
2019-06-10T05:23:26.390Z,15.98
2019-06-10T05:25:56.217Z,15.96
2019-06-10T05:28:24.478Z,15.93
2019-06-10T05:30:53.172Z,15.99
2019-06-10T05:33:22.818Z,16.04
2019-06-10T05:35:49.894Z,16.08
2019-06-10T05:38:17.055Z,16.14
2019-06-10T05:40:44.255Z,16.12
2019-06-10T05:43:13.042Z,16.03
2019-06-10T05:45:42.454Z,16.05
2019-06-10T05:48:09.787Z,16.08
2019-06-10T05:50:36.929Z,16.19
2019-06-10T05:53:04.551Z,16.35
2019-06-10T05:55:33.741Z,16.41
2019-06-10T05:58:03.135Z,16.47
2019-06-10T06:00:33.445Z,16.53
2019-06-10T06:03:02.623Z,16.53
2019-06-10T06:05:30.195Z,16.53
2019-06-10T06:08:04.750Z,16.53
2019-06-10T06:10:27.362Z,16.52
2019-06-10T06:12:55.002Z,16.48
2019-06-10T06:15:22.675Z,16.43
2019-06-10T06:18:05.724Z,16.43
2019-06-10T06:20:19.832Z,16.60
2019-06-10T06:22:47.111Z,16.75
2019-06-10T06:25:15.698Z,16.73
2019-06-10T06:27:43.253Z,16.75
2019-06-10T06:30:18.597Z,16.80
2019-06-10T06:32:43.611Z,16.88
2019-06-10T06:35:12.656Z,16.90
2019-06-10T06:37:39.899Z,16.94
2019-06-10T06:40:07.786Z,16.98
2019-06-10T06:42:36.779Z,16.99
2019-06-10T06:45:06.055Z,17.02
2019-06-10T06:47:35.624Z,17.00
2019-06-10T06:50:04.254Z,17.14
2019-06-10T06:53:04.939Z,17.11
2019-06-10T06:55:02.476Z,17.08
2019-06-10T06:57:33.283Z,17.02
2019-06-10T06:59:59.231Z,17.05
2019-06-10T07:02:26.534Z,17.11
2019-06-10T07:04:53.703Z,17.18
2019-06-10T07:07:22.246Z,17.17
2019-06-10T07:09:52.630Z,17.22
2019-06-10T07:12:23.065Z,17.30
2019-06-10T07:14:52.628Z,17.30
2019-06-10T07:17:22.600Z,17.33
2019-06-10T07:19:49.204Z,17.39
2019-06-10T07:22:16.538Z,17.38
2019-06-10T07:24:47.634Z,17.39
2019-06-10T07:27:13.768Z,17.44
2019-06-10T07:29:46.850Z,17.41
2019-06-10T07:32:12.396Z,17.37
2019-06-10T07:34:40.455Z,17.37
2019-06-10T07:37:09.008Z,17.46
2019-06-10T07:39:36.867Z,17.60
2019-06-10T07:42:05.594Z,17.66
2019-06-10T07:44:34.569Z,17.68
2019-06-10T07:47:02.725Z,17.62
2019-06-10T07:49:32.278Z,17.58
2019-06-10T07:52:12.004Z,17.58
2019-06-10T07:54:29.305Z,17.54
2019-06-10T07:56:56.742Z,17.56
2019-06-10T07:59:24.023Z,17.56
2019-06-10T08:01:54.856Z,17.60
2019-06-10T08:04:22.523Z,17.61
2019-06-10T08:06:52.870Z,17.66
2019-06-10T08:09:22.736Z,17.71
2019-06-10T08:11:54.450Z,17.76
2019-06-10T08:14:22.290Z,17.79
2019-06-10T08:16:53.124Z,17.79
2019-06-10T08:19:34.543Z,17.74
2019-06-10T08:21:53.515Z,17.74
2019-06-10T08:24:22.152Z,17.73
2019-06-10T08:26:53.072Z,17.80
2019-06-10T08:29:23.219Z,17.87
2019-06-10T08:31:50.144Z,17.94
2019-06-10T08:34:22.249Z,17.98
2019-06-10T08:36:54.691Z,17.92
2019-06-10T08:39:24.312Z,18.04
2019-06-10T08:41:52.793Z,18.09
2019-06-10T08:44:22.893Z,18.22
2019-06-10T08:46:49.635Z,18.46
2019-06-10T08:49:16.871Z,18.59
2019-06-10T08:51:50.202Z,18.65
2019-06-10T08:54:18.060Z,18.71
2019-06-10T08:56:49.006Z,18.77
2019-06-10T08:59:14.671Z,18.77
2019-06-10T09:01:48.337Z,18.78
2019-06-10T09:04:13.325Z,18.66
2019-06-10T09:06:44.089Z,18.54
2019-06-10T09:09:12.849Z,18.46
2019-06-10T09:11:43.162Z,18.35
2019-06-10T09:14:09.654Z,18.26
2019-06-10T09:16:40.124Z,18.27
2019-06-10T09:19:08.610Z,18.30
2019-06-10T09:21:35.778Z,18.32
2019-06-10T09:24:03.849Z,18.36
2019-06-10T09:26:33.736Z,18.41
2019-06-10T09:29:03.204Z,18.41
2019-06-10T09:31:30.352Z,18.49
2019-06-10T09:34:00.012Z,18.68
2019-06-10T09:36:27.264Z,18.82
2019-06-10T09:38:58.354Z,18.82
2019-06-10T09:41:36.548Z,18.88
2019-06-10T09:43:56.941Z,18.89
2019-06-10T09:46:25.903Z,18.88
2019-06-10T09:48:55.941Z,18.82
2019-06-10T09:51:24.749Z,18.71
2019-06-10T09:54:02.410Z,18.68
2019-06-10T09:56:23.025Z,18.67
2019-06-10T09:58:54.728Z,18.67
2019-06-10T10:01:20.288Z,18.67
2019-06-10T10:03:53.836Z,18.71
2019-06-10T10:06:16.861Z,18.73
2019-06-10T10:08:46.057Z,18.73
2019-06-10T10:11:13.724Z,18.76
2019-06-10T10:13:44.142Z,18.83
2019-06-10T10:16:09.947Z,19.03
2019-06-10T10:18:37.217Z,19.31
2019-06-10T10:21:04.757Z,19.32
2019-06-10T10:23:48.371Z,19.14
2019-06-10T10:26:03.418Z,19.03
2019-06-10T10:28:33.206Z,19.00
2019-06-10T10:31:00.210Z,18.95
2019-06-10T10:33:30.283Z,18.88
2019-06-10T10:35:57.258Z,18.83
2019-06-10T10:38:24.500Z,18.80
2019-06-10T10:40:56.478Z,18.84
2019-06-10T10:43:28.424Z,18.96
2019-06-10T10:45:53.257Z,19.17
2019-06-10T10:48:19.600Z,19.36
2019-06-10T10:50:49.179Z,19.43
2019-06-10T10:53:16.517Z,19.54
2019-06-10T10:55:44.073Z,19.63
2019-06-10T10:58:14.844Z,19.75
2019-06-10T11:00:57.852Z,19.78
2019-06-10T11:03:25.353Z,19.67
2019-06-10T11:06:00.433Z,19.61
2019-06-10T11:08:22.804Z,19.55
2019-06-10T11:10:55.458Z,19.41
2019-06-10T11:13:24.198Z,19.26
2019-06-10T11:15:55.396Z,19.19
2019-06-10T11:18:22.751Z,19.08
2019-06-10T11:20:51.402Z,19.03
2019-06-10T11:23:19.256Z,19.04
2019-06-10T11:25:47.730Z,19.06
2019-06-10T11:28:14.965Z,19.11
2019-06-10T11:30:42.700Z,19.16
2019-06-10T11:33:10.240Z,19.25
2019-06-10T11:35:37.423Z,19.71
2019-06-10T11:38:04.690Z,20.29
2019-06-10T11:40:34.172Z,20.31
2019-06-10T11:43:01.109Z,20.15
2019-06-10T11:45:32.835Z,20.01
2019-06-10T11:48:02.459Z,19.91
2019-06-10T11:50:29.830Z,19.81
2019-06-10T11:53:00.551Z,19.73
2019-06-10T11:55:26.522Z,19.64
2019-06-10T11:57:56.031Z,19.56
2019-06-10T12:00:24.441Z,19.44
2019-06-10T12:02:53.717Z,19.42
2019-06-10T12:05:23.530Z,19.45
2019-06-10T12:07:54.547Z,19.47
2019-06-10T12:10:23.324Z,19.46
2019-06-10T12:12:54.056Z,19.48
2019-06-10T12:15:19.656Z,19.48
2019-06-10T12:17:53.507Z,19.49
2019-06-10T12:20:16.840Z,19.43
2019-06-10T12:22:43.972Z,19.46
2019-06-10T12:25:31.331Z,19.44
2019-06-10T12:27:43.411Z,19.49
2019-06-10T12:30:13.301Z,19.54
2019-06-10T12:32:42.554Z,19.53
2019-06-10T12:35:13.518Z,19.49
2019-06-10T12:37:39.855Z,19.41
2019-06-10T12:40:12.791Z,19.22
2019-06-10T12:42:41.952Z,19.12
2019-06-10T12:45:12.768Z,19.06
2019-06-10T12:47:42.384Z,19.06
2019-06-10T12:50:12.166Z,19.04
2019-06-10T12:52:39.550Z,19.03
2019-06-10T12:55:07.536Z,19.06
2019-06-10T12:57:35.377Z,19.05
2019-06-10T13:00:17.466Z,19.00
2019-06-10T13:02:35.714Z,18.95
2019-06-10T13:05:07.041Z,18.90
2019-06-10T13:07:36.840Z,18.85
2019-06-10T13:10:06.330Z,18.87
2019-06-10T13:12:33.434Z,18.83
2019-06-10T13:15:04.790Z,18.84
2019-06-10T13:17:29.793Z,18.89
2019-06-10T13:19:57.352Z,18.91
2019-06-10T13:22:24.638Z,18.95
2019-06-10T13:24:53.556Z,18.96
2019-06-10T13:27:22.724Z,18.95
2019-06-10T13:29:49.973Z,18.94
2019-06-10T13:32:17.458Z,18.94
2019-06-10T13:34:45.285Z,18.94
2019-06-10T13:37:16.100Z,18.91
2019-06-10T13:39:43.059Z,18.89
2019-06-10T13:42:13.671Z,18.82
2019-06-10T13:44:42.639Z,18.79
2019-06-10T13:47:12.607Z,18.76
2019-06-10T13:49:38.533Z,18.77
2019-06-10T13:52:11.578Z,18.82
2019-06-10T13:54:35.342Z,18.93
2019-06-10T13:57:04.085Z,18.99
2019-06-10T13:59:31.761Z,18.97
2019-06-10T14:01:59.896Z,18.91
2019-06-10T14:04:28.258Z,18.94
2019-06-10T14:06:57.180Z,18.95
2019-06-10T14:09:25.319Z,18.95
2019-06-10T14:11:52.502Z,18.97
2019-06-10T14:14:20.198Z,18.96
2019-06-10T14:16:49.066Z,18.94
2019-06-10T14:19:16.503Z,18.96
2019-06-10T14:21:44.105Z,18.95
2019-06-10T14:24:15.826Z,18.93
2019-06-10T14:26:42.937Z,18.91
2019-06-10T14:29:14.094Z,18.90
2019-06-10T14:31:44.231Z,18.84
2019-06-10T14:34:12.089Z,18.78
2019-06-10T14:36:39.366Z,18.73
2019-06-10T14:39:08.117Z,18.73
2019-06-10T14:41:35.383Z,18.72
2019-06-10T14:44:04.462Z,18.70
2019-06-10T14:46:32.984Z,18.70
2019-06-10T14:49:02.333Z,18.66
2019-06-10T14:51:32.476Z,18.63
2019-06-10T14:53:59.325Z,18.66
2019-06-10T14:56:26.576Z,18.66
2019-06-10T14:58:54.100Z,18.66
2019-06-10T15:01:25.602Z,18.62
2019-06-10T15:03:52.316Z,18.59
2019-06-10T15:06:19.975Z,18.56
2019-06-10T15:08:48.526Z,18.58
2019-06-10T15:11:16.127Z,18.59
2019-06-10T15:13:43.591Z,18.58
2019-06-10T15:16:12.323Z,18.61
2019-06-10T15:18:39.873Z,18.65
2019-06-10T15:21:08.635Z,18.66
2019-06-10T15:23:36.008Z,18.72
2019-06-10T15:26:05.504Z,18.80
2019-06-10T15:28:32.703Z,18.87
2019-06-10T15:30:59.908Z,18.83
2019-06-10T15:33:27.057Z,18.87
2019-06-10T15:35:55.004Z,18.89
2019-06-10T15:38:23.253Z,18.89
2019-06-10T15:40:53.283Z,18.90
2019-06-10T15:43:23.356Z,18.89
2019-06-10T15:45:49.886Z,18.80
2019-06-10T15:48:18.779Z,18.75
2019-06-10T15:50:46.266Z,18.71
2019-06-10T15:53:15.961Z,18.65
2019-06-10T15:56:09.048Z,18.61
2019-06-10T15:58:12.918Z,18.56
2019-06-10T16:00:42.585Z,18.55
2019-06-10T16:03:12.097Z,18.57
2019-06-10T16:05:39.604Z,18.55
2019-06-10T16:08:07.054Z,18.49
2019-06-10T16:10:34.499Z,18.54
2019-06-10T16:13:03.452Z,18.50
2019-06-10T16:15:33.035Z,18.46
2019-06-10T16:18:02.816Z,18.44
2019-06-10T16:20:32.191Z,18.46
2019-06-10T16:22:58.851Z,18.42
2019-06-10T16:25:26.732Z,18.37
2019-06-10T16:27:54.685Z,18.32
2019-06-10T16:30:23.188Z,18.24
2019-06-10T16:32:52.970Z,18.24
2019-06-10T16:35:23.209Z,18.25
2019-06-10T16:37:49.955Z,18.22
2019-06-10T16:40:17.226Z,18.10
2019-06-10T16:42:44.345Z,18.08
2019-06-10T16:45:12.945Z,18.11
2019-06-10T16:47:42.865Z,18.10
2019-06-10T16:50:12.233Z,18.12
2019-06-10T16:52:39.617Z,18.11
2019-06-10T16:55:07.326Z,18.12
2019-06-10T16:57:34.478Z,18.10
2019-06-10T17:00:11.125Z,18.09
2019-06-10T17:02:34.546Z,18.07
2019-06-10T17:05:04.280Z,18.03
2019-06-10T17:07:32.976Z,18.04
2019-06-10T17:10:02.326Z,18.08
2019-06-10T17:12:30.992Z,18.10
2019-06-10T17:14:58.738Z,18.09
2019-06-10T17:17:27.903Z,18.08
2019-06-10T17:19:55.605Z,18.10
2019-06-10T17:22:24.012Z,18.09
2019-06-10T17:24:53.691Z,18.07
2019-06-10T17:27:23.205Z,18.10
2019-06-10T17:29:52.006Z,18.09
2019-06-10T17:32:19.794Z,18.06
2019-06-10T17:34:47.456Z,18.07
2019-06-10T17:37:15.041Z,18.08
2019-06-10T17:39:42.897Z,18.07
2019-06-10T17:42:12.261Z,18.05
2019-06-10T17:44:39.956Z,18.04
2019-06-10T17:47:07.198Z,18.04
2019-06-10T17:49:34.962Z,18.03
2019-06-10T17:52:02.670Z,18.01
2019-06-10T17:54:30.408Z,17.99
2019-06-10T17:56:57.656Z,18.00
2019-06-10T17:59:25.317Z,18.01
2019-06-10T18:01:52.542Z,18.01
2019-06-10T18:04:31.448Z,18.01
2019-06-10T18:07:02.267Z,18.00
2019-06-10T18:09:32.702Z,17.98
2019-06-10T18:11:58.900Z,17.94
2019-06-10T18:14:28.113Z,17.90
2019-06-10T18:16:57.870Z,17.86
2019-06-10T18:19:26.254Z,17.81
2019-06-10T18:21:53.590Z,17.79
2019-06-10T18:24:24.420Z,17.80
2019-06-10T18:26:52.949Z,17.80
2019-06-10T18:29:22.799Z,17.77
2019-06-10T18:31:49.769Z,17.66
2019-06-10T18:34:16.963Z,17.51
2019-06-10T18:36:44.134Z,17.43
2019-06-10T18:39:12.369Z,17.37
2019-06-10T18:41:40.235Z,17.30
2019-06-10T18:44:19.971Z,17.18
2019-06-10T18:46:37.810Z,17.10
2019-06-10T18:49:05.195Z,17.11
2019-06-10T18:51:35.598Z,17.09
2019-06-10T18:54:02.141Z,17.05
2019-06-10T18:56:33.665Z,17.02
2019-06-10T18:59:15.674Z,17.05
2019-06-10T19:01:30.278Z,17.04
2019-06-10T19:03:57.997Z,17.02
2019-06-10T19:06:25.299Z,17.07
2019-06-10T19:08:53.072Z,17.05
2019-06-10T19:11:20.469Z,16.99
2019-06-10T19:13:48.084Z,16.98
2019-06-10T19:16:15.275Z,17.01
2019-06-10T19:18:43.173Z,17.03
2019-06-10T19:21:12.918Z,17.04
2019-06-10T19:23:43.531Z,17.01
2019-06-10T19:26:09.269Z,16.99
2019-06-10T19:28:38.738Z,17.00
2019-06-10T19:31:07.108Z,17.02
2019-06-10T19:33:35.816Z,17.03
2019-06-10T19:36:03.313Z,17.02
2019-06-10T19:38:32.411Z,17.01
2019-06-10T19:40:59.660Z,16.99
2019-06-10T19:43:26.792Z,16.99
2019-06-10T19:45:54.384Z,17.00
2019-06-10T19:48:21.517Z,16.90
2019-06-10T19:50:51.356Z,16.89
2019-06-10T19:53:18.178Z,16.85
2019-06-10T19:55:46.094Z,16.81
2019-06-10T19:58:13.835Z,16.84
2019-06-10T20:00:41.604Z,16.89
2019-06-10T20:03:10.100Z,16.89
2019-06-10T20:05:38.075Z,16.84
2019-06-10T20:08:05.342Z,16.83
2019-06-10T20:10:34.018Z,16.79
2019-06-10T20:13:01.376Z,16.81
2019-06-10T20:15:28.759Z,16.78
2019-06-10T20:17:56.228Z,16.75
2019-06-10T20:20:23.424Z,16.65
2019-06-10T20:22:52.824Z,16.66
2019-06-10T20:25:22.325Z,16.67
2019-06-10T20:27:52.187Z,16.62
2019-06-10T20:30:25.191Z,16.58
2019-06-10T20:32:51.868Z,16.61
2019-06-10T20:35:18.201Z,16.63
2019-06-10T20:37:47.266Z,16.56
2019-06-10T20:40:15.870Z,16.56
2019-06-10T20:42:44.395Z,16.58
2019-06-10T20:45:13.137Z,16.50
2019-06-10T20:47:44.648Z,16.42
2019-06-10T20:50:12.959Z,16.36
2019-06-10T20:52:39.989Z,16.37
2019-06-10T20:55:07.793Z,16.33
2019-06-10T20:57:49.967Z,16.33
2019-06-10T21:00:19.745Z,16.34
2019-06-10T21:02:36.471Z,16.37
2019-06-10T21:05:05.744Z,16.45
2019-06-10T21:07:34.939Z,16.47
2019-06-10T21:10:04.438Z,16.42
2019-06-10T21:12:32.719Z,16.38
2019-06-10T21:15:02.226Z,16.37
2019-06-10T21:17:29.075Z,16.36
2019-06-10T21:19:57.497Z,16.41
2019-06-10T21:22:24.778Z,16.38
2019-06-10T21:24:53.548Z,16.33
2019-06-10T21:27:23.876Z,16.27
2019-06-10T21:29:54.458Z,16.29
2019-06-10T21:32:20.527Z,16.32
2019-06-10T21:34:49.241Z,16.24
2019-06-10T21:37:16.528Z,16.27
2019-06-10T21:39:44.824Z,16.30
2019-06-10T21:42:12.817Z,16.26
2019-06-10T21:44:40.139Z,16.19
2019-06-10T21:47:07.781Z,16.18
2019-06-10T21:49:35.184Z,16.19
2019-06-10T21:52:03.046Z,16.13
2019-06-10T21:54:32.905Z,16.08
2019-06-10T21:56:59.876Z,16.07
2019-06-10T21:59:27.412Z,16.10
2019-06-10T22:01:54.659Z,16.13
2019-06-10T22:04:22.546Z,16.13
2019-06-10T22:06:49.737Z,16.12
2019-06-10T22:09:17.218Z,16.08
2019-06-10T22:11:45.935Z,16.07
2019-06-10T22:14:13.211Z,16.02
2019-06-10T22:16:42.146Z,16.01
2019-06-10T22:19:09.914Z,15.98
2019-06-10T22:21:37.098Z,15.93
2019-06-10T22:24:04.487Z,15.90
2019-06-10T22:26:32.232Z,15.92
2019-06-10T22:29:00.051Z,15.81
2019-06-10T22:31:27.312Z,15.78
2019-06-10T22:33:56.255Z,15.82
2019-06-10T22:36:23.703Z,15.81
2019-06-10T22:38:55.602Z,15.76
2019-06-10T22:41:22.584Z,15.77
2019-06-10T22:43:52.162Z,15.73
2019-06-10T22:46:19.842Z,15.75
2019-06-10T22:48:47.178Z,15.77
2019-06-10T22:51:14.860Z,15.77
2019-06-10T22:53:42.646Z,15.74
2019-06-10T22:56:12.194Z,15.73
2019-06-10T22:58:39.225Z,15.74
2019-06-10T23:01:07.287Z,15.74
2019-06-10T23:03:34.637Z,15.69
2019-06-10T23:06:02.650Z,15.70
2019-06-10T23:08:33.256Z,15.64
2019-06-10T23:11:02.658Z,15.68
2019-06-10T23:13:29.528Z,15.65
2019-06-10T23:15:58.293Z,15.61
2019-06-10T23:18:25.793Z,15.58
2019-06-10T23:20:56.213Z,15.58
2019-06-10T23:23:23.621Z,15.60
2019-06-10T23:25:51.687Z,15.57
2019-06-10T23:28:22.054Z,15.55
2019-06-10T23:30:50.019Z,15.50
2019-06-10T23:33:17.288Z,15.47
2019-06-10T23:35:47.528Z,15.47
2019-06-10T23:38:13.816Z,15.46
2019-06-10T23:40:42.978Z,15.45
2019-06-10T23:43:10.316Z,15.44
2019-06-10T23:45:37.530Z,15.39
2019-06-10T23:48:05.165Z,15.33
2019-06-10T23:50:33.855Z,15.31
2019-06-10T23:53:07.249Z,15.32
2019-06-10T23:55:32.016Z,15.37
2019-06-10T23:58:00.352Z,15.25
